Roblin, Canada
Current Conditions -  °F | °C
As of 9:00 AM on Thursday 30 Oct 2014 (Local Time) from CYQV Reporting Station
Overcast Overcast  
Wind Chill: 16°   Ceiling: 1500
Heat Index: 27°   Visibility: 9mi
Dew Point: 23°   Wind: 13mph
Humidity: 86%   Direction: 30°NNE
Pressure: 30.42"   Gusts: 18mph
Location:  51.23°N, 101.35°W
Report Text: CYQV 301400Z AUTO 03011G16KT 9SM OVC015 M03/M05 A3042 RMK SLP330
Loading
Personal Weather Stations






























Interactive Weather Map New forecast layout! Learn more

10-Day Weather Forecast

Advertisements
Track Severe Weather on mobile